Time;durP1;ratioP1;P1;durP2;ratioP2;P2;SDS_P1;SDS_P2;PMS_P1;PMS_P2;Temp;Humidity;BMP_temperature;BMP_pressure;BME280_temperature;BME280_humidity;BME280_pressure;Samples;Min_cycle;Max_cycle;Signal;HPM_P1;HPM_P2
2024/04/26 00:00:12;;;;;;;4.30;3.50;;;4.40;99.90;;;;;;5404805;26;20359;-50
2024/04/26 00:02:38;;;;;;;3.20;2.90;;;4.40;99.90;;;;;;5401930;26;19994;-50
2024/04/26 00:05:04;;;;;;;3.97;3.10;;;4.30;99.90;;;;;;5403025;26;20350;-48
2024/04/26 00:07:29;;;;;;;5.22;2.78;;;4.30;99.90;;;;;;5401013;26;20009;-49
2024/04/26 00:09:55;;;;;;;3.50;2.83;;;4.30;99.90;;;;;;5403378;26;20058;-49
2024/04/26 00:12:20;;;;;;;4.00;3.03;;;4.30;99.90;;;;;;5401903;26;20035;-50
2024/04/26 00:14:46;;;;;;;5.35;3.10;;;4.30;99.90;;;;;;5403201;26;20011;-49
2024/04/26 00:17:12;;;;;;;3.38;2.95;;;4.30;99.90;;;;;;5400975;26;20126;-47
2024/04/26 00:19:37;;;;;;;4.65;3.20;;;4.20;99.90;;;;;;5404376;26;20026;-48
2024/04/26 00:22:03;;;;;;;3.28;2.60;;;4.20;99.90;;;;;;5397354;26;20833;-48
2024/04/26 00:24:28;;;;;;;5.00;3.05;;;4.20;99.90;;;;;;5405425;26;20023;-48
2024/04/26 00:26:54;;;;;;;3.63;2.65;;;4.20;99.90;;;;;;5405845;26;20006;-49
2024/04/26 00:29:20;;;;;;;4.47;3.58;;;4.20;99.90;;;;;;5406486;26;20050;-48
2024/04/26 00:31:45;;;;;;;4.55;3.47;;;4.20;99.90;;;;;;5403913;26;20360;-48
2024/04/26 00:34:11;;;;;;;5.70;3.30;;;4.20;99.90;;;;;;5401988;26;20219;-49
2024/04/26 00:36:39;;;;;;;5.53;3.60;;;4.20;99.90;;;;;;5405179;26;19996;-48
2024/04/26 00:39:05;;;;;;;4.10;3.25;;;4.10;99.90;;;;;;5400359;26;20076;-52
2024/04/26 00:41:30;;;;;;;5.88;3.10;;;4.10;99.90;;;;;;5401082;26;20007;-49
2024/04/26 00:44:07;;;;;;;3.72;3.25;;;4.20;99.90;;;;;;5403421;26;20004;-50
2024/04/26 00:46:33;;;;;;;4.82;3.33;;;4.10;99.90;;;;;;5402963;26;20003;-49
2024/04/26 00:48:59;;;;;;;4.82;3.47;;;4.10;99.90;;;;;;5400323;26;20081;-49
2024/04/26 00:51:25;;;;;;;4.35;3.58;;;4.10;99.90;;;;;;5399938;26;20000;-49
2024/04/26 00:53:51;;;;;;;4.63;3.50;;;4.10;99.90;;;;;;5402383;26;20864;-48
2024/04/26 00:56:17;;;;;;;4.32;3.22;;;4.10;99.90;;;;;;5402274;26;20007;-48
2024/04/26 00:58:44;;;;;;;4.50;3.28;;;4.10;99.90;;;;;;5401676;26;20010;-49
2024/04/26 01:01:11;;;;;;;3.08;2.88;;;4.10;99.90;;;;;;5399104;26;20206;-52
2024/04/26 01:03:37;;;;;;;5.15;3.33;;;4.10;99.90;;;;;;5404653;26;20363;-49
2024/04/26 01:06:03;;;;;;;5.55;3.47;;;4.10;99.90;;;;;;5402469;26;19996;-48
2024/04/26 01:08:28;;;;;;;6.70;3.80;;;4.10;99.90;;;;;;5403011;26;20085;-51
2024/04/26 01:10:54;;;;;;;4.35;3.30;;;4.10;99.90;;;;;;5399202;26;20010;-48
2024/04/26 01:13:21;;;;;;;5.32;3.70;;;4.10;99.90;;;;;;5401379;26;20004;-49
2024/04/26 01:15:47;;;;;;;6.13;4.07;;;4.10;99.90;;;;;;5400377;26;20478;-48
2024/04/26 01:18:12;;;;;;;9.35;4.53;;;4.10;99.90;;;;;;5403723;26;20003;-48
2024/04/26 01:20:38;;;;;;;5.95;4.35;;;4.10;99.90;;;;;;5407853;26;20010;-49
2024/04/26 01:23:04;;;;;;;6.45;4.30;;;4.10;99.90;;;;;;5401196;26;20027;-48
2024/04/26 01:25:29;;;;;;;5.13;3.97;;;4.10;99.90;;;;;;5401254;26;20004;-48
2024/04/26 01:27:55;;;;;;;4.40;3.85;;;4.10;99.90;;;;;;5398845;26;20750;-48
2024/04/26 01:30:24;;;;;;;6.97;3.78;;;4.10;99.90;;;;;;5399349;26;20446;-48
2024/04/26 01:32:50;;;;;;;5.38;4.40;;;4.10;99.90;;;;;;5400323;26;20000;-48
2024/04/26 01:35:16;;;;;;;4.85;4.07;;;4.10;99.90;;;;;;5398043;26;20447;-50
2024/04/26 01:37:42;;;;;;;4.88;4.15;;;4.10;99.90;;;;;;5403728;26;20014;-48
2024/04/26 01:40:08;;;;;;;5.15;4.38;;;4.10;99.90;;;;;;5401108;26;20003;-49
2024/04/26 01:42:33;;;;;;;9.93;4.13;;;4.10;99.90;;;;;;5403252;26;20003;-49
2024/04/26 01:44:59;;;;;;;5.60;4.47;;;4.10;99.90;;;;;;5404054;26;20003;-49
2024/04/26 01:47:25;;;;;;;5.63;4.63;;;4.10;99.90;;;;;;5401760;26;20026;-51
2024/04/26 01:49:50;;;;;;;6.60;4.63;;;4.10;99.90;;;;;;5402378;26;20014;-51
2024/04/26 01:52:16;;;;;;;7.75;5.18;;;4.20;99.90;;;;;;5368433;26;20000;-50
2024/04/26 01:54:43;;;;;;;5.85;4.70;;;4.20;99.90;;;;;;5403017;26;20737;-53
2024/04/26 01:57:08;;;;;;;6.13;4.32;;;4.20;99.90;;;;;;5402491;26;20343;-53
2024/04/26 01:59:34;;;;;;;5.45;4.47;;;4.20;99.90;;;;;;5402665;26;19999;-49
2024/04/26 02:02:00;;;;;;;5.68;4.65;;;4.20;99.90;;;;;;5404897;26;20406;-49
2024/04/26 02:04:25;;;;;;;6.75;4.47;;;4.20;99.90;;;;;;5405138;26;20011;-50
2024/04/26 02:06:51;;;;;;;7.25;4.45;;;4.20;99.90;;;;;;5393762;26;20003;-48
2024/04/26 02:09:16;;;;;;;7.20;4.63;;;4.20;99.90;;;;;;5404614;26;20010;-48
2024/04/26 02:11:42;;;;;;;6.15;4.35;;;4.20;99.90;;;;;;5402125;26;20048;-49
2024/04/26 02:14:07;;;;;;;6.05;4.93;;;4.20;99.90;;;;;;5399019;26;20016;-48
2024/04/26 02:16:33;;;;;;;7.30;5.00;;;4.30;99.90;;;;;;5404993;26;20392;-48
2024/04/26 02:18:59;;;;;;;7.18;4.72;;;4.30;99.90;;;;;;5400800;26;19992;-52
2024/04/26 02:21:24;;;;;;;5.97;5.10;;;4.30;99.90;;;;;;5399382;26;20016;-51
2024/04/26 02:23:50;;;;;;;7.43;4.88;;;4.30;99.90;;;;;;5403575;26;19998;-47
2024/04/26 02:26:20;;;;;;;5.22;4.40;;;4.30;99.90;;;;;;5396713;26;20016;-48
2024/04/26 02:28:45;;;;;;;7.35;4.85;;;4.30;99.90;;;;;;5403069;26;20031;-47
2024/04/26 02:31:11;;;;;;;6.95;4.88;;;4.30;99.90;;;;;;5398777;26;20290;-48
2024/04/26 02:33:37;;;;;;;5.90;4.80;;;4.30;99.90;;;;;;5394344;26;20018;-47
2024/04/26 02:36:07;;;;;;;7.30;4.50;;;4.30;99.90;;;;;;5396474;26;20014;-47
2024/04/26 02:38:32;;;;;;;6.72;5.18;;;4.40;99.90;;;;;;5397678;26;20000;-51
2024/04/26 02:40:58;;;;;;;9.63;5.63;;;4.30;99.90;;;;;;5402863;26;20116;-47
2024/04/26 02:43:24;;;;;;;6.22;4.35;;;4.40;99.90;;;;;;5399697;26;20673;-47
2024/04/26 02:45:50;;;;;;;7.95;5.20;;;4.30;99.90;;;;;;5397988;26;20011;-49
2024/04/26 02:48:15;;;;;;;6.85;5.15;;;4.40;99.90;;;;;;5397674;26;20461;-48
2024/04/26 02:50:41;;;;;;;6.20;4.80;;;4.30;99.90;;;;;;5394865;26;20007;-46
2024/04/26 02:53:08;;;;;;;6.95;5.97;;;4.40;99.90;;;;;;5399230;26;20007;-46
2024/04/26 02:55:34;;;;;;;5.97;4.35;;;4.40;99.90;;;;;;5399365;26;20004;-51
2024/04/26 02:58:00;;;;;;;9.50;5.45;;;4.40;99.90;;;;;;5399276;26;20031;-51
2024/04/26 03:00:25;;;;;;;7.53;5.15;;;4.40;99.90;;;;;;5396425;26;20705;-48
2024/04/26 03:02:51;;;;;;;5.93;5.03;;;4.40;99.90;;;;;;5401269;26;20007;-48
2024/04/26 03:05:16;;;;;;;8.00;4.80;;;4.40;99.90;;;;;;5397643;26;20016;-49
2024/04/26 03:07:42;;;;;;;6.65;5.60;;;4.40;99.90;;;;;;5400386;26;19996;-49
2024/04/26 03:10:07;;;;;;;6.07;4.82;;;4.40;99.90;;;;;;5394725;26;20011;-48
2024/04/26 03:12:33;;;;;;;11.25;4.63;;;4.40;99.90;;;;;;5402100;26;20055;-48
2024/04/26 03:15:02;;;;;;;7.40;5.03;;;4.40;99.90;;;;;;5399774;26;20010;-49
2024/04/26 03:17:27;;;;;;;8.95;5.05;;;4.40;99.90;;;;;;5400704;26;20471;-51
2024/04/26 03:19:53;;;;;;;7.72;5.00;;;4.40;99.90;;;;;;5398451;26;20053;-48
2024/04/26 03:22:19;;;;;;;7.47;5.57;;;4.40;99.90;;;;;;5399695;26;20053;-49
2024/04/26 03:24:44;;;;;;;9.32;5.40;;;4.40;99.90;;;;;;5399457;26;20004;-48
2024/04/26 03:27:10;;;;;;;7.38;5.28;;;4.40;99.90;;;;;;5400267;26;20011;-50
2024/04/26 03:29:37;;;;;;;9.35;5.32;;;4.40;99.90;;;;;;5396656;26;20069;-47
2024/04/26 03:32:03;;;;;;;5.45;4.50;;;4.40;99.90;;;;;;5402839;26;19995;-49
2024/04/26 03:34:29;;;;;;;8.77;5.22;;;4.40;99.90;;;;;;5398306;26;20018;-49
2024/04/26 03:36:54;;;;;;;7.22;4.82;;;4.40;99.90;;;;;;5401943;26;20003;-48
2024/04/26 03:39:20;;;;;;;8.35;5.80;;;4.40;99.90;;;;;;5402920;26;20007;-48
2024/04/26 03:41:45;;;;;;;5.72;4.78;;;4.40;99.90;;;;;;5398179;26;20036;-49
2024/04/26 03:44:11;;;;;;;7.47;5.30;;;4.40;99.90;;;;;;5403397;26;19999;-49
2024/04/26 03:46:43;;;;;;;7.45;4.80;;;4.40;99.90;;;;;;5396313;26;20447;-47
2024/04/26 03:49:09;;;;;;;6.43;4.60;;;4.40;99.90;;;;;;5396948;26;20072;-48
2024/04/26 03:51:35;;;;;;;5.47;4.95;;;4.40;99.90;;;;;;5401543;26;20513;-49
2024/04/26 03:54:01;;;;;;;8.18;5.32;;;4.40;99.90;;;;;;5403249;26;20047;-50
2024/04/26 03:56:27;;;;;;;6.38;4.70;;;4.40;99.90;;;;;;5400789;26;20072;-48
2024/04/26 03:58:52;;;;;;;8.48;5.50;;;4.50;99.90;;;;;;5404203;26;20138;-49
2024/04/26 04:01:18;;;;;;;8.25;5.07;;;4.50;99.90;;;;;;5399863;26;20000;-48
2024/04/26 04:03:43;;;;;;;10.13;5.15;;;4.50;99.90;;;;;;5401524;26;20088;-52
2024/04/26 04:06:09;;;;;;;6.32;4.65;;;4.50;99.90;;;;;;5395673;26;20000;-49
2024/04/26 04:08:35;;;;;;;9.52;5.15;;;4.50;99.90;;;;;;5396913;26;19991;-47
2024/04/26 04:11:00;;;;;;;11.65;5.53;;;4.50;99.90;;;;;;5398933;26;20044;-48
2024/04/26 04:13:26;;;;;;;6.85;4.35;;;4.50;99.90;;;;;;5403751;26;20815;-47
2024/04/26 04:15:51;;;;;;;6.75;5.30;;;4.50;99.90;;;;;;5394930;26;20011;-48
2024/04/26 04:18:17;;;;;;;9.88;4.72;;;4.50;99.90;;;;;;5400239;26;20452;-47
2024/04/26 04:20:42;;;;;;;8.63;5.03;;;4.50;99.90;;;;;;5390901;26;20033;-48
2024/04/26 04:23:08;;;;;;;6.65;4.93;;;4.60;99.90;;;;;;5397678;26;20730;-50
2024/04/26 04:25:33;;;;;;;6.57;5.30;;;4.50;99.90;;;;;;5396586;26;20045;-50
2024/04/26 04:27:59;;;;;;;6.80;5.05;;;4.50;99.90;;;;;;5395731;26;20412;-49
2024/04/26 04:30:24;;;;;;;8.60;5.20;;;4.50;99.90;;;;;;5399557;26;20023;-51
2024/04/26 04:32:50;;;;;;;6.07;4.93;;;4.50;99.90;;;;;;5396184;26;19997;-53
2024/04/26 04:35:15;;;;;;;6.15;4.95;;;4.60;99.90;;;;;;5400543;26;20523;-49
2024/04/26 04:37:41;;;;;;;6.97;4.85;;;4.60;99.90;;;;;;5400433;26;20004;-51
2024/04/26 04:40:07;;;;;;;7.07;4.70;;;4.60;99.90;;;;;;5398658;26;19996;-50
2024/04/26 04:42:32;;;;;;;7.57;5.38;;;4.60;99.90;;;;;;5394783;26;20007;-48
2024/04/26 04:44:58;;;;;;;9.13;5.35;;;4.60;99.90;;;;;;5399825;26;20003;-49
2024/04/26 04:47:23;;;;;;;7.68;5.07;;;4.60;99.90;;;;;;5394886;26;20011;-49
2024/04/26 04:49:49;;;;;;;7.22;5.63;;;4.60;99.90;;;;;;5400807;26;20007;-50
2024/04/26 04:52:15;;;;;;;7.95;5.22;;;4.60;99.90;;;;;;5396664;26;20011;-49
2024/04/26 04:54:40;;;;;;;6.57;4.93;;;4.60;99.90;;;;;;5402671;26;20435;-52
2024/04/26 04:57:06;;;;;;;9.20;5.35;;;4.60;99.90;;;;;;5407052;26;19995;-51
2024/04/26 04:59:32;;;;;;;9.80;5.68;;;4.60;99.90;;;;;;5399023;26;20459;-48
2024/04/26 05:01:57;;;;;;;8.10;5.50;;;4.60;99.90;;;;;;5397937;26;20007;-48
2024/04/26 05:04:23;;;;;;;6.28;4.82;;;4.70;99.90;;;;;;5401194;26;20605;-50
2024/04/26 05:06:48;;;;;;;8.75;4.85;;;4.70;99.90;;;;;;5396526;26;20526;-49
2024/04/26 05:09:14;;;;;;;7.95;5.32;;;4.70;99.90;;;;;;5400985;26;20015;-48
2024/04/26 05:11:40;;;;;;;7.35;5.47;;;4.70;99.90;;;;;;5402122;26;20022;-48
2024/04/26 05:14:06;;;;;;;8.60;4.78;;;4.70;99.90;;;;;;5403331;26;20009;-49
2024/04/26 05:16:32;;;;;;;7.57;4.70;;;4.70;99.90;;;;;;5401524;26;20011;-48
2024/04/26 05:18:58;;;;;;;7.93;4.80;;;4.70;99.90;;;;;;5398296;26;19996;-48
2024/04/26 05:21:24;;;;;;;7.03;5.75;;;4.70;99.90;;;;;;5401204;26;20015;-48
2024/04/26 05:23:50;;;;;;;7.03;5.05;;;4.70;99.90;;;;;;5398134;26;20133;-49
2024/04/26 05:26:15;;;;;;;8.02;5.53;;;4.70;99.90;;;;;;5398879;26;20004;-50
2024/04/26 05:28:41;;;;;;;6.45;4.88;;;4.70;99.90;;;;;;5396351;26;19999;-50
2024/04/26 05:31:07;;;;;;;8.82;6.15;;;4.80;99.90;;;;;;5403247;26;20051;-46
2024/04/26 05:33:33;;;;;;;5.93;4.80;;;4.70;99.90;;;;;;5398896;26;20017;-50
2024/04/26 05:35:58;;;;;;;9.07;5.18;;;4.80;99.90;;;;;;5399187;26;19991;-48
2024/04/26 05:38:24;;;;;;;8.93;5.43;;;4.80;99.90;;;;;;5406202;26;19999;-48
2024/04/26 05:40:50;;;;;;;7.38;5.18;;;4.80;99.90;;;;;;5398604;26;20444;-51
2024/04/26 05:43:19;;;;;;;5.85;4.63;;;4.80;99.90;;;;;;5401779;26;20004;-49
2024/04/26 05:45:45;;;;;;;8.02;5.35;;;4.80;99.90;;;;;;5395886;26;19999;-49
2024/04/26 05:48:11;;;;;;;6.55;4.97;;;4.80;99.90;;;;;;5401569;26;20015;-48
2024/04/26 05:50:36;;;;;;;7.72;5.65;;;4.80;99.90;;;;;;5401507;26;20014;-48
2024/04/26 05:53:02;;;;;;;6.78;5.22;;;4.80;99.90;;;;;;5397113;26;20049;-50
2024/04/26 05:55:27;;;;;;;8.70;5.70;;;4.80;99.90;;;;;;5400269;26;20018;-48
2024/04/26 05:57:53;;;;;;;8.02;5.05;;;4.80;99.90;;;;;;5391928;26;20078;-49
2024/04/26 06:00:19;;;;;;;7.30;5.70;;;4.80;99.90;;;;;;5398023;26;20076;-50
2024/04/26 06:02:47;;;;;;;10.18;5.50;;;4.90;99.90;;;;;;5407262;26;19996;-49
2024/04/26 06:05:13;;;;;;;7.60;5.45;;;4.90;99.90;;;;;;5397858;26;20083;-48
2024/04/26 06:07:39;;;;;;;7.40;5.30;;;4.90;99.90;;;;;;5396184;26;20021;-49
2024/04/26 06:10:08;;;;;;;9.68;5.53;;;4.90;99.90;;;;;;5398672;26;20007;-50
2024/04/26 06:12:33;;;;;;;5.40;4.80;;;4.90;99.90;;;;;;5408449;26;20007;-51
2024/04/26 06:14:59;;;;;;;7.53;5.43;;;4.90;99.90;;;;;;5398709;26;20003;-49
2024/04/26 06:17:27;;;;;;;7.82;5.28;;;4.90;99.90;;;;;;5397489;26;20026;-49
2024/04/26 06:19:53;;;;;;;10.10;5.53;;;4.90;99.90;;;;;;5396852;26;20488;-49
2024/04/26 06:22:19;;;;;;;12.73;5.80;;;4.90;99.90;;;;;;5401965;26;20079;-50
2024/04/26 06:24:44;;;;;;;6.82;5.15;;;5.00;99.90;;;;;;5396183;26;20008;-49
2024/04/26 06:27:10;;;;;;;6.28;5.60;;;5.00;99.90;;;;;;5394933;26;20076;-49
2024/04/26 06:29:36;;;;;;;6.25;4.93;;;5.00;99.90;;;;;;5400323;26;20048;-49
2024/04/26 06:32:03;;;;;;;7.70;5.32;;;5.00;99.90;;;;;;5390965;26;20000;-49
2024/04/26 06:34:30;;;;;;;6.18;4.63;;;5.00;99.90;;;;;;5400383;26;20015;-50
2024/04/26 06:36:55;;;;;;;8.68;5.60;;;5.00;99.90;;;;;;5394518;26;20782;-53
2024/04/26 06:39:21;;;;;;;8.30;5.38;;;5.10;99.90;;;;;;5400324;26;20010;-51
2024/04/26 06:41:46;;;;;;;6.85;4.93;;;5.10;99.90;;;;;;5401303;26;20010;-50
2024/04/26 06:44:12;;;;;;;7.80;5.13;;;5.20;99.90;;;;;;5400428;26;20016;-54
2024/04/26 06:46:38;;;;;;;7.82;4.57;;;5.10;99.90;;;;;;5398134;26;20714;-54
2024/04/26 06:49:03;;;;;;;7.82;4.88;;;5.10;99.90;;;;;;5395220;26;19995;-50
2024/04/26 06:51:29;;;;;;;8.23;5.57;;;5.10;99.90;;;;;;5404154;26;20080;-52
2024/04/26 06:53:54;;;;;;;7.97;4.78;;;5.20;99.90;;;;;;5402295;26;20076;-51
2024/04/26 06:56:20;;;;;;;6.95;4.55;;;5.20;99.90;;;;;;5404681;26;20047;-49
2024/04/26 06:58:45;;;;;;;8.40;4.80;;;5.20;99.90;;;;;;5403959;26;19992;-51
2024/04/26 07:01:11;;;;;;;8.95;5.65;;;5.30;99.90;;;;;;5403327;26;20010;-51
2024/04/26 07:03:38;;;;;;;8.68;5.50;;;5.30;99.90;;;;;;5395015;26;20467;-49
2024/04/26 07:06:04;;;;;;;7.10;5.35;;;5.40;99.90;;;;;;5398304;26;20105;-48
2024/04/26 07:08:30;;;;;;;7.97;5.75;;;5.40;99.90;;;;;;5402197;26;19995;-53
2024/04/26 07:10:55;;;;;;;6.95;5.30;;;5.40;99.90;;;;;;5398546;26;20075;-52
2024/04/26 07:13:21;;;;;;;7.50;4.85;;;5.40;99.90;;;;;;5399244;26;20008;-50
2024/04/26 07:15:46;;;;;;;7.80;5.75;;;5.40;99.90;;;;;;5399233;26;20014;-48
2024/04/26 07:18:12;;;;;;;7.28;5.03;;;5.40;99.90;;;;;;5404201;26;20010;-53
2024/04/26 07:20:37;;;;;;;7.50;5.72;;;5.40;99.90;;;;;;5399296;26;19999;-49
2024/04/26 07:23:03;;;;;;;8.88;5.40;;;5.50;99.90;;;;;;5406094;26;20021;-49
2024/04/26 07:25:29;;;;;;;10.27;4.60;;;5.50;99.90;;;;;;5395910;26;20490;-50
2024/04/26 07:27:54;;;;;;;11.40;5.82;;;5.50;99.90;;;;;;5395758;26;20003;-49
2024/04/26 07:30:20;;;;;;;10.15;5.25;;;5.50;99.90;;;;;;5406616;26;20013;-48
2024/04/26 07:32:46;;;;;;;10.48;4.85;;;5.50;99.90;;;;;;5402957;26;20024;-49
2024/04/26 07:35:11;;;;;;;6.85;4.68;;;5.50;99.90;;;;;;5403801;26;19996;-51
2024/04/26 07:37:37;;;;;;;7.88;4.93;;;5.60;99.90;;;;;;5399991;26;20018;-50
2024/04/26 07:40:03;;;;;;;8.43;4.53;;;5.60;99.90;;;;;;5398808;26;20075;-52
2024/04/26 07:42:28;;;;;;;8.63;5.47;;;5.60;99.90;;;;;;5398067;26;20039;-50
2024/04/26 07:44:54;;;;;;;8.93;5.35;;;5.60;99.90;;;;;;5394574;26;20068;-48
2024/04/26 07:47:22;;;;;;;8.40;4.80;;;5.60;99.90;;;;;;5399774;26;20012;-49
2024/04/26 07:49:49;;;;;;;7.82;5.78;;;5.60;99.90;;;;;;5400426;26;20000;-52
2024/04/26 07:52:15;;;;;;;6.40;4.72;;;5.60;99.90;;;;;;5400753;26;20052;-51
2024/04/26 07:54:41;;;;;;;5.82;4.78;;;5.70;99.90;;;;;;5397848;26;20019;-49
2024/04/26 07:57:07;;;;;;;7.82;4.40;;;5.70;99.90;;;;;;5396024;26;20355;-50
2024/04/26 07:59:32;;;;;;;7.60;5.22;;;5.70;99.90;;;;;;5398026;26;19995;-49
2024/04/26 08:01:58;;;;;;;7.38;5.45;;;5.60;99.90;;;;;;5402047;26;20750;-49
2024/04/26 08:04:23;;;;;;;8.45;5.50;;;5.70;99.90;;;;;;5400157;26;20018;-49
2024/04/26 08:06:49;;;;;;;10.27;5.93;;;5.70;99.90;;;;;;5402231;26;20015;-49
2024/04/26 08:09:15;;;;;;;6.70;4.85;;;5.80;99.90;;;;;;5398691;26;20041;-52
2024/04/26 08:11:40;;;;;;;10.60;5.60;;;5.80;99.90;;;;;;5399690;26;20007;-49
2024/04/26 08:14:06;;;;;;;5.72;5.13;;;5.90;99.90;;;;;;5402815;26;20018;-52
2024/04/26 08:16:31;;;;;;;10.02;5.90;;;5.90;99.90;;;;;;5395612;26;20080;-52
2024/04/26 08:18:57;;;;;;;7.47;5.55;;;6.00;99.90;;;;;;5401190;26;20141;-49
2024/04/26 08:21:22;;;;;;;9.90;6.13;;;6.00;99.90;;;;;;5397061;26;20006;-48
2024/04/26 08:23:51;;;;;;;8.13;5.07;;;6.00;99.90;;;;;;5399112;26;20026;-49
2024/04/26 08:26:18;;;;;;;9.45;5.57;;;6.00;99.90;;;;;;5399039;26;20070;-50
2024/04/26 08:28:45;;;;;;;11.43;6.47;;;6.10;99.90;;;;;;5399678;26;20358;-49
2024/04/26 08:31:10;;;;;;;8.20;6.72;;;6.10;99.90;;;;;;5403975;26;19996;-48
2024/04/26 08:33:36;;;;;;;8.50;5.35;;;6.00;99.90;;;;;;5407694;26;20380;-52
2024/04/26 08:36:02;;;;;;;10.25;6.00;;;6.00;99.90;;;;;;5406369;26;20004;-48
2024/04/26 08:38:28;;;;;;;8.07;5.75;;;6.00;99.90;;;;;;5402532;26;20035;-50
2024/04/26 08:40:54;;;;;;;8.55;5.80;;;6.00;99.90;;;;;;5403823;26;20007;-51
2024/04/26 08:43:22;;;;;;;8.27;4.70;;;6.00;99.90;;;;;;5397176;26;20324;-49
2024/04/26 08:45:52;;;;;;;6.72;5.38;;;6.00;99.90;;;;;;5403064;26;20007;-51
2024/04/26 08:48:20;;;;;;;8.35;5.30;;;6.00;99.90;;;;;;5404952;26;20501;-51
2024/04/26 08:50:47;;;;;;;7.43;5.20;;;6.00;99.90;;;;;;5404604;26;19995;-49
2024/04/26 08:53:18;;;;;;;7.90;4.80;;;6.00;99.90;;;;;;5395098;26;20000;-50
2024/04/26 08:55:44;;;;;;;8.65;4.70;;;5.90;99.90;;;;;;5399434;26;20004;-51
2024/04/26 08:58:12;;;;;;;5.70;4.93;;;5.90;99.90;;;;;;5399574;26;20000;-50
2024/04/26 09:00:38;;;;;;;7.47;4.72;;;5.90;99.90;;;;;;5400443;26;20011;-50
2024/04/26 09:03:05;;;;;;;6.70;5.55;;;5.90;99.90;;;;;;5397699;26;20447;-49
2024/04/26 09:05:32;;;;;;;7.20;4.55;;;5.90;99.90;;;;;;5401391;26;20333;-52
2024/04/26 09:07:59;;;;;;;7.15;5.50;;;5.90;99.90;;;;;;5396827;26;20003;-50
2024/04/26 09:10:25;;;;;;;5.57;4.93;;;5.90;99.90;;;;;;5405056;26;20391;-51
2024/04/26 09:12:51;;;;;;;5.88;4.22;;;5.90;99.90;;;;;;5397072;26;20007;-50
2024/04/26 09:15:20;;;;;;;5.90;5.20;;;5.90;99.90;;;;;;5398304;26;20014;-50
2024/04/26 09:17:46;;;;;;;7.35;5.28;;;6.00;99.90;;;;;;5399347;26;20000;-49
2024/04/26 09:20:12;;;;;;;10.23;5.35;;;6.00;99.90;;;;;;5398592;26;20042;-51
2024/04/26 09:22:38;;;;;;;7.70;4.97;;;6.10;99.90;;;;;;5400483;26;20011;-50
2024/04/26 09:25:07;;;;;;;9.88;5.65;;;6.20;99.90;;;;;;5400734;26;20476;-51
2024/04/26 09:27:36;;;;;;;6.75;5.38;;;6.30;99.90;;;;;;5403359;26;19998;-51
2024/04/26 09:30:07;;;;;;;8.82;5.22;;;6.40;99.90;;;;;;5401461;26;20000;-52
2024/04/26 09:32:33;;;;;;;6.45;4.78;;;6.40;99.90;;;;;;5397591;26;20004;-51
2024/04/26 09:35:01;;;;;;;7.78;6.18;;;6.50;99.90;;;;;;5402437;26;20010;-50
2024/04/26 09:37:32;;;;;;;9.15;5.43;;;6.60;99.90;;;;;;5399888;26;20446;-49
2024/04/26 09:40:00;;;;;;;7.57;5.90;;;6.60;99.90;;;;;;5402220;26;20476;-49
2024/04/26 09:42:26;;;;;;;7.88;5.78;;;6.60;99.90;;;;;;5395265;26;20457;-49
2024/04/26 09:44:53;;;;;;;9.10;5.78;;;6.60;99.90;;;;;;5398146;26;20014;-50
2024/04/26 09:47:23;;;;;;;9.32;6.00;;;6.60;99.90;;;;;;5402412;26;19996;-51
2024/04/26 09:49:56;;;;;;;8.38;6.60;;;6.60;99.90;;;;;;5401456;26;20076;-52
2024/04/26 09:52:23;;;;;;;9.93;5.68;;;6.60;99.90;;;;;;5401274;26;20166;-49
2024/04/26 09:54:53;;;;;;;6.32;5.38;;;6.60;99.90;;;;;;5401699;26;20079;-50
2024/04/26 09:57:19;;;;;;;6.72;5.68;;;6.60;99.90;;;;;;5399970;26;19995;-51
2024/04/26 10:00:38;;;;;;;7.82;5.70;;;6.70;99.90;;;;;;5400942;26;19995;-50
2024/04/26 10:03:08;;;;;;;9.32;5.75;;;6.60;99.90;;;;;;5398591;26;20088;-51
2024/04/26 10:05:35;;;;;;;6.97;6.05;;;6.70;99.90;;;;;;5391415;26;20068;-50
2024/04/26 10:08:05;;;;;;;6.90;5.35;;;6.70;99.90;;;;;;5398620;26;20080;-52
2024/04/26 10:10:32;;;;;;;9.63;6.38;;;6.70;99.90;;;;;;5407404;26;20003;-50
2024/04/26 10:13:05;;;;;;;7.60;5.63;;;6.60;99.90;;;;;;5396698;26;20042;-51
2024/04/26 10:15:35;;;;;;;9.10;6.03;;;6.60;99.90;;;;;;5395632;26;20000;-50
2024/04/26 10:18:03;;;;;;;7.60;5.30;;;6.60;99.90;;;;;;5399750;26;20420;-49
2024/04/26 10:20:51;;;;;;;8.82;5.32;;;6.60;99.90;;;;;;5404860;26;20022;-50
2024/04/26 10:23:17;;;;;;;9.18;5.30;;;6.60;99.90;;;;;;5395579;26;20011;-52
2024/04/26 10:25:44;;;;;;;9.07;6.32;;;6.60;99.90;;;;;;5400344;26;19999;-48
2024/04/26 10:28:16;;;;;;;10.07;6.35;;;6.50;99.90;;;;;;5396785;26;20000;-52
2024/04/26 10:30:50;;;;;;;9.52;5.55;;;6.50;99.90;;;;;;5402826;26;20487;-49
2024/04/26 10:33:19;;;;;;;7.57;5.78;;;6.50;99.90;;;;;;5397732;26;20065;-49
2024/04/26 10:35:49;;;;;;;8.98;5.97;;;6.60;99.90;;;;;;5395941;26;20455;-50
2024/04/26 10:38:16;;;;;;;7.30;5.82;;;6.60;99.90;;;;;;5399402;26;20041;-49
2024/04/26 10:40:53;;;;;;;8.38;5.93;;;6.70;99.90;;;;;;5396439;26;20011;-50
2024/04/26 10:43:28;;;;;;;6.95;6.13;;;6.70;99.90;;;;;;5404696;26;20040;-50
2024/04/26 10:45:57;;;;;;;8.18;5.93;;;6.80;99.90;;;;;;5397760;26;20010;-52
2024/04/26 10:48:31;;;;;;;6.97;6.13;;;6.80;99.90;;;;;;5397322;26;20021;-50
2024/04/26 10:51:12;;;;;;;7.97;6.05;;;6.80;99.90;;;;;;5401038;26;20073;-49
2024/04/26 10:53:40;;;;;;;8.18;6.03;;;6.70;99.90;;;;;;5398625;26;20074;-49
2024/04/26 10:56:15;;;;;;;7.22;5.68;;;6.70;99.90;;;;;;5393026;26;20007;-52
2024/04/26 10:58:45;;;;;;;7.22;5.75;;;6.70;99.90;;;;;;5400178;26;20007;-50
2024/04/26 11:01:22;;;;;;;10.82;5.78;;;6.70;99.90;;;;;;5396471;26;20008;-52
2024/04/26 11:04:00;;;;;;;6.63;5.68;;;6.70;99.90;;;;;;5402491;26;19996;-50
2024/04/26 11:06:30;;;;;;;8.20;5.63;;;6.80;99.90;;;;;;5402494;26;20018;-49
2024/04/26 11:09:13;;;;;;;6.80;5.82;;;6.90;99.90;;;;;;5401275;26;20007;-51
2024/04/26 11:11:55;;;;;;;9.35;6.28;;;7.00;99.90;;;;;;5398652;26;20348;-51
2024/04/26 11:14:30;;;;;;;7.53;6.07;;;7.10;99.90;;;;;;5402095;26;20065;-52
2024/04/26 11:16:56;;;;;;;9.75;7.55;;;7.20;99.90;;;;;;5400419;26;20117;-49
2024/04/26 11:19:30;;;;;;;8.20;6.10;;;7.30;99.90;;;;;;5395883;26;20003;-49
2024/04/26 11:21:59;;;;;;;8.45;5.68;;;7.30;99.90;;;;;;5392999;26;19992;-49
2024/04/26 11:24:27;;;;;;;7.15;6.45;;;7.30;99.90;;;;;;5395016;26;19999;-50
2024/04/26 11:26:56;;;;;;;6.70;5.88;;;7.40;99.90;;;;;;5394989;26;20012;-51
2024/04/26 11:29:23;;;;;;;7.70;6.57;;;7.40;99.90;;;;;;5397662;26;19993;-49
2024/04/26 11:31:50;;;;;;;9.23;6.20;;;7.40;99.90;;;;;;5399185;26;20010;-50
2024/04/26 11:34:18;;;;;;;7.95;5.88;;;7.40;99.90;;;;;;5397902;26;20514;-50
2024/04/26 11:36:48;;;;;;;8.75;6.32;;;7.50;99.90;;;;;;5395137;26;20708;-53
2024/04/26 11:39:14;;;;;;;10.85;6.47;;;7.70;99.90;;;;;;5402175;26;19996;-50
2024/04/26 11:41:40;;;;;;;10.15;6.55;;;7.80;99.90;;;;;;5403356;26;19999;-51
2024/04/26 11:44:08;;;;;;;10.15;6.80;;;7.90;99.90;;;;;;5406495;26;19996;-53
2024/04/26 11:46:34;;;;;;;9.88;7.53;;;8.20;99.90;;;;;;5396779;26;20007;-50
2024/04/26 11:49:00;;;;;;;8.45;6.18;;;8.40;99.90;;;;;;5405431;26;20072;-53
2024/04/26 11:51:26;;;;;;;9.75;7.40;;;8.60;99.90;;;;;;5403590;26;20018;-49
2024/04/26 11:53:57;;;;;;;8.07;7.25;;;8.80;99.90;;;;;;5397646;26;20003;-52
2024/04/26 11:56:27;;;;;;;9.43;6.85;;;8.90;99.90;;;;;;5397118;26;20000;-51
2024/04/26 11:58:56;;;;;;;9.30;7.15;;;9.00;99.90;;;;;;5399462;26;20015;-49
2024/04/26 12:01:22;;;;;;;10.02;7.53;;;9.00;99.90;;;;;;5397729;26;20004;-51
2024/04/26 12:03:47;;;;;;;23.80;17.10;;;9.10;99.90;;;;;;5403398;26;20795;-49
2024/04/26 12:06:13;;;;;;;32.70;23.23;;;9.20;99.90;;;;;;5396729;26;20513;-54
2024/04/26 12:08:38;;;;;;;12.98;9.55;;;9.20;99.90;;;;;;5404007;26;20000;-51
2024/04/26 12:11:04;;;;;;;7.80;6.15;;;9.30;99.90;;;;;;5400004;26;20258;-54
2024/04/26 12:13:30;;;;;;;8.63;6.28;;;9.40;99.90;;;;;;5398406;26;20825;-50
2024/04/26 12:15:55;;;;;;;7.70;6.38;;;9.50;99.90;;;;;;5400368;26;20010;-51
2024/04/26 12:18:21;;;;;;;7.38;5.47;;;9.40;99.90;;;;;;5399513;26;20164;-51
2024/04/26 12:20:46;;;;;;;6.85;4.97;;;9.30;99.90;;;;;;5406444;26;19996;-53
2024/04/26 12:23:12;;;;;;;6.60;4.40;;;9.30;99.90;;;;;;5397555;26;19991;-52
2024/04/26 12:25:37;;;;;;;5.05;4.53;;;9.40;99.90;;;;;;5401222;26;20622;-52
2024/04/26 12:28:07;;;;;;;4.97;4.57;;;9.50;99.90;;;;;;5400712;26;19995;-50
2024/04/26 12:30:37;;;;;;;6.00;4.68;;;9.60;99.90;;;;;;5392487;26;20093;-52
2024/04/26 12:33:03;;;;;;;5.85;5.22;;;9.70;99.90;;;;;;5400527;26;20022;-55
2024/04/26 12:35:31;;;;;;;6.30;5.40;;;9.80;99.90;;;;;;5398609;26;20483;-50
2024/04/26 12:37:57;;;;;;;5.63;5.05;;;10.00;99.90;;;;;;5403239;26;20660;-51
2024/04/26 12:40:28;;;;;;;7.43;4.82;;;10.10;99.90;;;;;;5398360;26;20778;-50
2024/04/26 12:42:55;;;;;;;5.57;4.65;;;10.40;99.90;;;;;;5397428;26;19991;-50
2024/04/26 12:45:21;;;;;;;6.13;4.32;;;10.70;99.90;;;;;;5397932;26;20015;-54
2024/04/26 12:47:47;;;;;;;5.15;4.10;;;10.80;99.90;;;;;;5398988;26;19991;-51
2024/04/26 12:50:13;;;;;;;4.88;4.35;;;10.80;99.90;;;;;;5399829;26;20019;-50
2024/04/26 12:52:39;;;;;;;5.68;4.57;;;10.70;99.90;;;;;;5400139;26;20050;-52